sensor_id;sensor_type;location;lat;lon;timestamp;P1;durP1;ratioP1;P2;durP2;ratioP2
16310;SDS011;8264;48.510;8.872;2022-10-03T00:00:00;14.33;;;2.90;;
16310;SDS011;8264;48.510;8.872;2022-10-03T00:02:36;75.50;;;5.97;;
16310;SDS011;8264;48.510;8.872;2022-10-03T00:05:23;2.97;;;2.77;;
16310;SDS011;8264;48.510;8.872;2022-10-03T00:08:00;2.87;;;2.60;;
16310;SDS011;8264;48.510;8.872;2022-10-03T00:10:35;3.23;;;2.50;;
16310;SDS011;8264;48.510;8.872;2022-10-03T00:13:10;3.10;;;2.80;;
16310;SDS011;8264;48.510;8.872;2022-10-03T00:15:47;3.63;;;3.00;;
16310;SDS011;8264;48.510;8.872;2022-10-03T00:18:20;3.10;;;2.80;;
16310;SDS011;8264;48.510;8.872;2022-10-03T00:21:00;2.70;;;2.50;;
16310;SDS011;8264;48.510;8.872;2022-10-03T00:23:35;3.10;;;2.80;;
16310;SDS011;8264;48.510;8.872;2022-10-03T00:26:07;11.83;;;2.90;;
16310;SDS011;8264;48.510;8.872;2022-10-03T00:31:49;34.53;;;4.00;;
16310;SDS011;8264;48.510;8.872;2022-10-03T00:34:24;2.87;;;2.67;;
16310;SDS011;8264;48.510;8.872;2022-10-03T00:37:05;2.60;;;2.13;;
16310;SDS011;8264;48.510;8.872;2022-10-03T00:39:40;3.10;;;2.77;;
16310;SDS011;8264;48.510;8.872;2022-10-03T00:45:25;4.53;;;2.77;;
16310;SDS011;8264;48.510;8.872;2022-10-03T00:48:16;5.60;;;2.87;;
16310;SDS011;8264;48.510;8.872;2022-10-03T00:50:57;90.50;;;4.83;;
16310;SDS011;8264;48.510;8.872;2022-10-03T00:53:40;79.93;;;4.53;;
16310;SDS011;8264;48.510;8.872;2022-10-03T00:56:18;74.70;;;4.30;;
16310;SDS011;8264;48.510;8.872;2022-10-03T00:59:05;13.50;;;2.37;;
16310;SDS011;8264;48.510;8.872;2022-10-03T01:01:41;9.00;;;2.10;;
16310;SDS011;8264;48.510;8.872;2022-10-03T01:07:11;95.43;;;5.77;;
16310;SDS011;8264;48.510;8.872;2022-10-03T01:09:56;95.80;;;6.07;;
16310;SDS011;8264;48.510;8.872;2022-10-03T01:12:36;2.77;;;2.57;;
16310;SDS011;8264;48.510;8.872;2022-10-03T01:15:16;2.53;;;2.20;;
16310;SDS011;8264;48.510;8.872;2022-10-03T01:17:50;2.97;;;2.67;;
16310;SDS011;8264;48.510;8.872;2022-10-03T01:20:27;3.40;;;2.63;;
16310;SDS011;8264;48.510;8.872;2022-10-03T01:23:10;77.63;;;6.73;;
16310;SDS011;8264;48.510;8.872;2022-10-03T01:25:46;3.70;;;3.33;;
16310;SDS011;8264;48.510;8.872;2022-10-03T01:28:22;3.10;;;2.80;;
16310;SDS011;8264;48.510;8.872;2022-10-03T01:31:12;4.67;;;2.87;;
16310;SDS011;8264;48.510;8.872;2022-10-03T01:33:41;3.33;;;3.03;;
16310;SDS011;8264;48.510;8.872;2022-10-03T01:36:11;2.70;;;2.40;;
16310;SDS011;8264;48.510;8.872;2022-10-03T01:38:43;3.03;;;2.70;;
16310;SDS011;8264;48.510;8.872;2022-10-03T01:41:14;10.03;;;3.57;;
16310;SDS011;8264;48.510;8.872;2022-10-03T01:43:50;3.50;;;3.20;;
16310;SDS011;8264;48.510;8.872;2022-10-03T01:46:20;3.73;;;2.97;;
16310;SDS011;8264;48.510;8.872;2022-10-03T01:48:50;3.53;;;2.87;;
16310;SDS011;8264;48.510;8.872;2022-10-03T01:51:21;3.30;;;2.53;;
16310;SDS011;8264;48.510;8.872;2022-10-03T01:53:56;3.10;;;2.80;;
16310;SDS011;8264;48.510;8.872;2022-10-03T01:56:28;2.93;;;2.50;;
16310;SDS011;8264;48.510;8.872;2022-10-03T01:59:01;3.17;;;2.50;;
16310;SDS011;8264;48.510;8.872;2022-10-03T02:01:33;8.77;;;3.47;;
16310;SDS011;8264;48.510;8.872;2022-10-03T02:04:05;4.73;;;2.80;;
16310;SDS011;8264;48.510;8.872;2022-10-03T02:06:41;3.30;;;2.70;;
16310;SDS011;8264;48.510;8.872;2022-10-03T02:09:17;3.10;;;2.67;;
16310;SDS011;8264;48.510;8.872;2022-10-03T02:11:56;4.03;;;2.50;;
16310;SDS011;8264;48.510;8.872;2022-10-03T02:14:30;4.37;;;2.90;;
16310;SDS011;8264;48.510;8.872;2022-10-03T02:17:02;2.73;;;2.23;;
16310;SDS011;8264;48.510;8.872;2022-10-03T02:19:33;2.97;;;2.30;;
16310;SDS011;8264;48.510;8.872;2022-10-03T02:22:12;2.53;;;2.33;;
16310;SDS011;8264;48.510;8.872;2022-10-03T02:24:40;2.53;;;2.13;;
16310;SDS011;8264;48.510;8.872;2022-10-03T02:30:14;2.10;;;1.90;;
16310;SDS011;8264;48.510;8.872;2022-10-03T02:38:46;2.40;;;1.73;;
16310;SDS011;8264;48.510;8.872;2022-10-03T02:41:28;2.27;;;1.90;;
16310;SDS011;8264;48.510;8.872;2022-10-03T02:47:48;2.03;;;1.80;;
16310;SDS011;8264;48.510;8.872;2022-10-03T02:50:42;2.20;;;1.70;;
16310;SDS011;8264;48.510;8.872;2022-10-03T02:56:37;1.70;;;1.60;;
16310;SDS011;8264;48.510;8.872;2022-10-03T02:59:29;2.80;;;1.30;;
16310;SDS011;8264;48.510;8.872;2022-10-03T03:02:06;1.93;;;1.50;;
16310;SDS011;8264;48.510;8.872;2022-10-03T03:05:03;1.40;;;1.30;;
16310;SDS011;8264;48.510;8.872;2022-10-03T03:08:02;1.50;;;1.40;;
16310;SDS011;8264;48.510;8.872;2022-10-03T03:13:46;1.53;;;1.43;;
16310;SDS011;8264;48.510;8.872;2022-10-03T03:19:29;1.80;;;1.70;;
16310;SDS011;8264;48.510;8.872;2022-10-03T03:22:07;1.83;;;1.63;;
16310;SDS011;8264;48.510;8.872;2022-10-03T03:24:45;2.87;;;1.50;;
16310;SDS011;8264;48.510;8.872;2022-10-03T03:27:25;1.40;;;1.30;;
16310;SDS011;8264;48.510;8.872;2022-10-03T03:30:00;1.90;;;1.20;;
16310;SDS011;8264;48.510;8.872;2022-10-03T03:32:31;1.60;;;1.50;;
16310;SDS011;8264;48.510;8.872;2022-10-03T03:35:13;1.30;;;1.20;;
16310;SDS011;8264;48.510;8.872;2022-10-03T03:37:47;2.43;;;1.20;;
16310;SDS011;8264;48.510;8.872;2022-10-03T03:46:03;1.70;;;1.53;;
16310;SDS011;8264;48.510;8.872;2022-10-03T03:48:39;1.40;;;1.30;;
16310;SDS011;8264;48.510;8.872;2022-10-03T03:51:19;2.00;;;1.57;;
16310;SDS011;8264;48.510;8.872;2022-10-03T03:57:02;1.30;;;1.20;;
16310;SDS011;8264;48.510;8.872;2022-10-03T03:59:58;1.80;;;1.70;;
16310;SDS011;8264;48.510;8.872;2022-10-03T04:05:25;3.30;;;1.73;;
16310;SDS011;8264;48.510;8.872;2022-10-03T04:08:06;2.53;;;1.50;;
16310;SDS011;8264;48.510;8.872;2022-10-03T04:10:46;1.70;;;1.60;;
16310;SDS011;8264;48.510;8.872;2022-10-03T04:19:18;1.83;;;1.73;;
16310;SDS011;8264;48.510;8.872;2022-10-03T04:21:58;3.13;;;1.70;;
16310;SDS011;8264;48.510;8.872;2022-10-03T04:27:36;2.10;;;1.90;;
16310;SDS011;8264;48.510;8.872;2022-10-03T04:30:09;3.47;;;2.00;;
16310;SDS011;8264;48.510;8.872;2022-10-03T04:32:51;2.40;;;1.97;;
16310;SDS011;8264;48.510;8.872;2022-10-03T04:35:40;2.37;;;1.73;;
16310;SDS011;8264;48.510;8.872;2022-10-03T04:38:28;2.50;;;2.10;;
16310;SDS011;8264;48.510;8.872;2022-10-03T04:41:09;3.63;;;2.00;;
16310;SDS011;8264;48.510;8.872;2022-10-03T04:43:44;2.10;;;1.90;;
16310;SDS011;8264;48.510;8.872;2022-10-03T04:46:20;2.20;;;2.00;;
16310;SDS011;8264;48.510;8.872;2022-10-03T04:48:50;1.50;;;1.40;;
16310;SDS011;8264;48.510;8.872;2022-10-03T04:51:23;3.37;;;1.93;;
16310;SDS011;8264;48.510;8.872;2022-10-03T04:54:00;2.00;;;1.80;;
16310;SDS011;8264;48.510;8.872;2022-10-03T04:56:36;2.03;;;1.83;;
16310;SDS011;8264;48.510;8.872;2022-10-03T04:59:11;2.53;;;1.80;;
16310;SDS011;8264;48.510;8.872;2022-10-03T05:01:49;2.00;;;1.90;;
16310;SDS011;8264;48.510;8.872;2022-10-03T05:04:18;2.17;;;1.97;;
16310;SDS011;8264;48.510;8.872;2022-10-03T05:06:54;2.53;;;2.03;;
16310;SDS011;8264;48.510;8.872;2022-10-03T05:09:29;2.53;;;2.33;;
16310;SDS011;8264;48.510;8.872;2022-10-03T05:12:01;2.17;;;1.97;;
16310;SDS011;8264;48.510;8.872;2022-10-03T05:17:23;2.20;;;2.00;;
16310;SDS011;8264;48.510;8.872;2022-10-03T05:22:53;3.43;;;2.50;;
16310;SDS011;8264;48.510;8.872;2022-10-03T05:25:32;2.73;;;2.53;;
16310;SDS011;8264;48.510;8.872;2022-10-03T05:28:08;3.17;;;2.87;;
16310;SDS011;8264;48.510;8.872;2022-10-03T05:30:42;3.70;;;2.77;;
16310;SDS011;8264;48.510;8.872;2022-10-03T05:33:16;3.93;;;3.30;;
16310;SDS011;8264;48.510;8.872;2022-10-03T05:35:50;3.20;;;2.90;;
16310;SDS011;8264;48.510;8.872;2022-10-03T05:38:47;3.30;;;3.00;;
16310;SDS011;8264;48.510;8.872;2022-10-03T05:41:24;3.60;;;3.30;;
16310;SDS011;8264;48.510;8.872;2022-10-03T05:43:55;3.50;;;3.20;;
16310;SDS011;8264;48.510;8.872;2022-10-03T05:46:39;3.63;;;3.00;;
16310;SDS011;8264;48.510;8.872;2022-10-03T05:49:16;4.03;;;3.07;;
16310;SDS011;8264;48.510;8.872;2022-10-03T05:52:03;2.97;;;2.50;;
16310;SDS011;8264;48.510;8.872;2022-10-03T05:54:46;4.20;;;3.80;;
16310;SDS011;8264;48.510;8.872;2022-10-03T05:57:42;3.67;;;2.53;;
16310;SDS011;8264;48.510;8.872;2022-10-03T06:00:32;3.80;;;3.27;;
16310;SDS011;8264;48.510;8.872;2022-10-03T06:03:15;4.13;;;3.73;;
16310;SDS011;8264;48.510;8.872;2022-10-03T06:06:02;3.67;;;3.37;;
16310;SDS011;8264;48.510;8.872;2022-10-03T06:08:46;5.47;;;4.20;;
16310;SDS011;8264;48.510;8.872;2022-10-03T06:11:25;4.43;;;4.03;;
16310;SDS011;8264;48.510;8.872;2022-10-03T06:14:21;5.20;;;4.00;;
16310;SDS011;8264;48.510;8.872;2022-10-03T06:16:55;6.13;;;3.67;;
16310;SDS011;8264;48.510;8.872;2022-10-03T06:19:36;5.07;;;3.57;;
16310;SDS011;8264;48.510;8.872;2022-10-03T06:22:26;3.93;;;3.53;;
16310;SDS011;8264;48.510;8.872;2022-10-03T06:31:12;5.67;;;3.93;;
16310;SDS011;8264;48.510;8.872;2022-10-03T06:34:09;5.97;;;4.30;;
16310;SDS011;8264;48.510;8.872;2022-10-03T06:43:07;5.53;;;4.83;;
16310;SDS011;8264;48.510;8.872;2022-10-03T06:45:49;6.27;;;4.53;;
16310;SDS011;8264;48.510;8.872;2022-10-03T06:51:24;5.50;;;4.60;;
16310;SDS011;8264;48.510;8.872;2022-10-03T06:59:54;6.43;;;5.00;;
16310;SDS011;8264;48.510;8.872;2022-10-03T07:02:45;4.77;;;4.17;;
16310;SDS011;8264;48.510;8.872;2022-10-03T07:08:48;4.37;;;3.97;;
16310;SDS011;8264;48.510;8.872;2022-10-03T07:11:40;5.40;;;4.27;;
16310;SDS011;8264;48.510;8.872;2022-10-03T07:14:24;4.03;;;3.73;;
16310;SDS011;8264;48.510;8.872;2022-10-03T07:17:06;3.87;;;3.47;;
16310;SDS011;8264;48.510;8.872;2022-10-03T07:25:53;5.57;;;4.20;;
16310;SDS011;8264;48.510;8.872;2022-10-03T07:31:46;6.37;;;4.00;;
16310;SDS011;8264;48.510;8.872;2022-10-03T07:37:33;5.10;;;4.53;;
16310;SDS011;8264;48.510;8.872;2022-10-03T07:40:31;5.07;;;4.57;;
16310;SDS011;8264;48.510;8.872;2022-10-03T07:46:09;9.10;;;6.20;;
16310;SDS011;8264;48.510;8.872;2022-10-03T07:48:53;6.10;;;5.43;;
16310;SDS011;8264;48.510;8.872;2022-10-03T07:51:34;7.77;;;6.57;;
16310;SDS011;8264;48.510;8.872;2022-10-03T07:54:19;6.80;;;4.77;;
16310;SDS011;8264;48.510;8.872;2022-10-03T07:57:02;8.03;;;6.93;;
16310;SDS011;8264;48.510;8.872;2022-10-03T08:00:00;8.87;;;6.63;;
16310;SDS011;8264;48.510;8.872;2022-10-03T08:06:06;13.83;;;6.93;;
16310;SDS011;8264;48.510;8.872;2022-10-03T08:08:50;7.90;;;5.90;;
16310;SDS011;8264;48.510;8.872;2022-10-03T08:11:50;9.40;;;6.17;;
16310;SDS011;8264;48.510;8.872;2022-10-03T08:14:25;11.83;;;6.90;;
16310;SDS011;8264;48.510;8.872;2022-10-03T08:19:58;9.20;;;7.33;;
16310;SDS011;8264;48.510;8.872;2022-10-03T08:22:43;8.03;;;6.67;;
16310;SDS011;8264;48.510;8.872;2022-10-03T08:25:25;10.50;;;7.97;;
16310;SDS011;8264;48.510;8.872;2022-10-03T08:31:04;7.77;;;6.60;;
16310;SDS011;8264;48.510;8.872;2022-10-03T08:33:44;7.17;;;6.20;;
16310;SDS011;8264;48.510;8.872;2022-10-03T08:39:11;11.50;;;10.30;;
16310;SDS011;8264;48.510;8.872;2022-10-03T08:41:59;15.33;;;10.80;;
16310;SDS011;8264;48.510;8.872;2022-10-03T08:44:44;17.37;;;11.73;;
16310;SDS011;8264;48.510;8.872;2022-10-03T08:50:40;18.17;;;11.77;;
16310;SDS011;8264;48.510;8.872;2022-10-03T08:53:40;16.77;;;12.50;;
16310;SDS011;8264;48.510;8.872;2022-10-03T08:56:23;16.93;;;13.03;;
16310;SDS011;8264;48.510;8.872;2022-10-03T09:01:58;16.93;;;11.83;;
16310;SDS011;8264;48.510;8.872;2022-10-03T09:07:56;18.87;;;12.03;;
16310;SDS011;8264;48.510;8.872;2022-10-03T09:11:02;17.53;;;11.93;;
16310;SDS011;8264;48.510;8.872;2022-10-03T09:14:10;14.30;;;12.73;;
16310;SDS011;8264;48.510;8.872;2022-10-03T09:17:01;18.33;;;13.13;;
16310;SDS011;8264;48.510;8.872;2022-10-03T09:19:48;18.97;;;12.67;;
16310;SDS011;8264;48.510;8.872;2022-10-03T09:23:01;17.03;;;12.57;;
16310;SDS011;8264;48.510;8.872;2022-10-03T09:28:37;14.73;;;11.07;;
16310;SDS011;8264;48.510;8.872;2022-10-03T09:31:34;19.40;;;12.07;;
16310;SDS011;8264;48.510;8.872;2022-10-03T09:34:27;14.23;;;10.50;;
16310;SDS011;8264;48.510;8.872;2022-10-03T09:37:13;18.53;;;12.50;;
16310;SDS011;8264;48.510;8.872;2022-10-03T09:40:00;16.10;;;12.03;;
16310;SDS011;8264;48.510;8.872;2022-10-03T09:48:42;14.50;;;10.13;;
16310;SDS011;8264;48.510;8.872;2022-10-03T09:51:35;16.43;;;11.43;;
16310;SDS011;8264;48.510;8.872;2022-10-03T09:57:20;14.23;;;10.73;;
16310;SDS011;8264;48.510;8.872;2022-10-03T10:00:15;16.40;;;10.33;;
16310;SDS011;8264;48.510;8.872;2022-10-03T10:08:36;15.20;;;9.93;;
16310;SDS011;8264;48.510;8.872;2022-10-03T10:11:28;12.97;;;8.87;;
16310;SDS011;8264;48.510;8.872;2022-10-03T10:14:07;10.07;;;8.17;;
16310;SDS011;8264;48.510;8.872;2022-10-03T10:19:44;14.33;;;8.53;;
16310;SDS011;8264;48.510;8.872;2022-10-03T10:25:16;10.33;;;8.47;;
16310;SDS011;8264;48.510;8.872;2022-10-03T10:27:58;11.67;;;8.83;;
16310;SDS011;8264;48.510;8.872;2022-10-03T10:33:33;8.27;;;7.10;;
16310;SDS011;8264;48.510;8.872;2022-10-03T10:36:46;10.20;;;6.07;;
16310;SDS011;8264;48.510;8.872;2022-10-03T10:39:50;7.30;;;4.60;;
16310;SDS011;8264;48.510;8.872;2022-10-03T10:42:38;8.67;;;5.30;;
16310;SDS011;8264;48.510;8.872;2022-10-03T10:45:23;9.67;;;6.07;;
16310;SDS011;8264;48.510;8.872;2022-10-03T10:51:32;10.03;;;5.90;;
16310;SDS011;8264;48.510;8.872;2022-10-03T10:57:36;11.80;;;5.57;;
16310;SDS011;8264;48.510;8.872;2022-10-03T11:00:20;9.93;;;5.20;;
16310;SDS011;8264;48.510;8.872;2022-10-03T11:05:54;7.37;;;4.30;;
16310;SDS011;8264;48.510;8.872;2022-10-03T11:08:52;8.67;;;4.77;;
16310;SDS011;8264;48.510;8.872;2022-10-03T11:11:48;7.63;;;4.50;;
16310;SDS011;8264;48.510;8.872;2022-10-03T11:14:43;10.50;;;4.47;;
16310;SDS011;8264;48.510;8.872;2022-10-03T11:17:40;7.87;;;4.40;;
16310;SDS011;8264;48.510;8.872;2022-10-03T11:29:47;5.83;;;3.87;;
16310;SDS011;8264;48.510;8.872;2022-10-03T11:38:42;7.40;;;3.97;;
16310;SDS011;8264;48.510;8.872;2022-10-03T11:41:15;8.20;;;3.97;;
16310;SDS011;8264;48.510;8.872;2022-10-03T11:44:09;10.33;;;4.13;;
16310;SDS011;8264;48.510;8.872;2022-10-03T11:46:47;8.30;;;3.97;;
16310;SDS011;8264;48.510;8.872;2022-10-03T11:49:25;7.17;;;3.97;;
16310;SDS011;8264;48.510;8.872;2022-10-03T11:52:04;6.23;;;3.53;;
16310;SDS011;8264;48.510;8.872;2022-10-03T11:54:36;6.43;;;3.47;;
16310;SDS011;8264;48.510;8.872;2022-10-03T11:57:06;10.70;;;3.90;;
16310;SDS011;8264;48.510;8.872;2022-10-03T11:59:42;6.20;;;3.40;;
16310;SDS011;8264;48.510;8.872;2022-10-03T12:02:31;6.53;;;3.43;;
16310;SDS011;8264;48.510;8.872;2022-10-03T12:05:06;6.43;;;3.10;;
16310;SDS011;8264;48.510;8.872;2022-10-03T12:07:41;8.70;;;3.20;;
16310;SDS011;8264;48.510;8.872;2022-10-03T12:10:35;8.97;;;3.47;;
16310;SDS011;8264;48.510;8.872;2022-10-03T12:13:08;7.73;;;3.20;;
16310;SDS011;8264;48.510;8.872;2022-10-03T12:15:40;4.53;;;3.03;;
16310;SDS011;8264;48.510;8.872;2022-10-03T12:18:10;8.07;;;2.90;;
16310;SDS011;8264;48.510;8.872;2022-10-03T12:20:56;5.57;;;2.90;;
16310;SDS011;8264;48.510;8.872;2022-10-03T12:23:33;6.33;;;2.80;;
16310;SDS011;8264;48.510;8.872;2022-10-03T12:26:22;7.17;;;2.70;;
16310;SDS011;8264;48.510;8.872;2022-10-03T12:28:54;5.97;;;2.80;;
16310;SDS011;8264;48.510;8.872;2022-10-03T12:31:24;6.73;;;2.83;;
16310;SDS011;8264;48.510;8.872;2022-10-03T12:33:53;5.50;;;2.70;;
16310;SDS011;8264;48.510;8.872;2022-10-03T12:36:24;7.77;;;3.17;;
16310;SDS011;8264;48.510;8.872;2022-10-03T12:38:56;4.00;;;2.80;;
16310;SDS011;8264;48.510;8.872;2022-10-03T12:41:41;6.93;;;3.03;;
16310;SDS011;8264;48.510;8.872;2022-10-03T12:44:18;4.43;;;2.93;;
16310;SDS011;8264;48.510;8.872;2022-10-03T12:46:55;5.00;;;3.10;;
16310;SDS011;8264;48.510;8.872;2022-10-03T12:49:29;7.47;;;3.17;;
16310;SDS011;8264;48.510;8.872;2022-10-03T12:52:04;8.13;;;3.33;;
16310;SDS011;8264;48.510;8.872;2022-10-03T12:54:43;6.37;;;2.73;;
16310;SDS011;8264;48.510;8.872;2022-10-03T12:57:20;5.60;;;3.23;;
16310;SDS011;8264;48.510;8.872;2022-10-03T13:00:01;6.20;;;3.10;;
16310;SDS011;8264;48.510;8.872;2022-10-03T13:02:32;4.90;;;2.90;;
16310;SDS011;8264;48.510;8.872;2022-10-03T13:08:05;7.40;;;3.20;;
16310;SDS011;8264;48.510;8.872;2022-10-03T13:10:41;6.50;;;3.00;;
16310;SDS011;8264;48.510;8.872;2022-10-03T13:13:19;5.73;;;3.10;;
16310;SDS011;8264;48.510;8.872;2022-10-03T13:16:02;4.23;;;2.73;;
16310;SDS011;8264;48.510;8.872;2022-10-03T13:18:47;6.33;;;3.40;;
16310;SDS011;8264;48.510;8.872;2022-10-03T13:21:18;4.77;;;3.20;;
16310;SDS011;8264;48.510;8.872;2022-10-03T13:23:47;3.10;;;2.70;;
16310;SDS011;8264;48.510;8.872;2022-10-03T13:26:19;7.10;;;3.30;;
16310;SDS011;8264;48.510;8.872;2022-10-03T13:31:41;6.43;;;2.60;;
16310;SDS011;8264;48.510;8.872;2022-10-03T13:34:17;4.93;;;3.07;;
16310;SDS011;8264;48.510;8.872;2022-10-03T13:36:46;4.57;;;3.03;;
16310;SDS011;8264;48.510;8.872;2022-10-03T13:39:18;5.17;;;3.00;;
16310;SDS011;8264;48.510;8.872;2022-10-03T13:41:58;6.83;;;3.30;;
16310;SDS011;8264;48.510;8.872;2022-10-03T13:44:35;6.23;;;3.37;;
16310;SDS011;8264;48.510;8.872;2022-10-03T13:47:07;5.70;;;3.07;;
16310;SDS011;8264;48.510;8.872;2022-10-03T13:49:46;4.97;;;3.07;;
16310;SDS011;8264;48.510;8.872;2022-10-03T13:52:17;4.53;;;2.90;;
16310;SDS011;8264;48.510;8.872;2022-10-03T13:54:55;5.73;;;2.67;;
16310;SDS011;8264;48.510;8.872;2022-10-03T13:57:39;5.30;;;3.10;;
16310;SDS011;8264;48.510;8.872;2022-10-03T14:00:09;4.57;;;2.50;;
16310;SDS011;8264;48.510;8.872;2022-10-03T14:02:41;4.80;;;3.10;;
16310;SDS011;8264;48.510;8.872;2022-10-03T14:05:30;4.63;;;2.97;;
16310;SDS011;8264;48.510;8.872;2022-10-03T14:08:15;5.73;;;2.83;;
16310;SDS011;8264;48.510;8.872;2022-10-03T14:10:54;4.67;;;2.60;;
16310;SDS011;8264;48.510;8.872;2022-10-03T14:13:29;4.27;;;2.97;;
16310;SDS011;8264;48.510;8.872;2022-10-03T14:16:02;4.63;;;3.23;;
16310;SDS011;8264;48.510;8.872;2022-10-03T14:18:40;7.43;;;3.50;;
16310;SDS011;8264;48.510;8.872;2022-10-03T14:24:12;4.83;;;2.80;;
16310;SDS011;8264;48.510;8.872;2022-10-03T14:26:45;6.27;;;3.43;;
16310;SDS011;8264;48.510;8.872;2022-10-03T14:29:15;4.97;;;3.37;;
16310;SDS011;8264;48.510;8.872;2022-10-03T14:31:47;6.13;;;3.37;;
16310;SDS011;8264;48.510;8.872;2022-10-03T14:34:20;5.43;;;3.30;;
16310;SDS011;8264;48.510;8.872;2022-10-03T14:36:55;6.53;;;2.70;;
16310;SDS011;8264;48.510;8.872;2022-10-03T14:39:31;4.93;;;3.27;;
16310;SDS011;8264;48.510;8.872;2022-10-03T14:44:56;6.77;;;3.00;;
16310;SDS011;8264;48.510;8.872;2022-10-03T14:47:30;6.93;;;2.90;;
16310;SDS011;8264;48.510;8.872;2022-10-03T14:49:58;5.07;;;2.90;;
16310;SDS011;8264;48.510;8.872;2022-10-03T14:52:29;6.43;;;2.80;;
16310;SDS011;8264;48.510;8.872;2022-10-03T14:55:06;5.63;;;2.70;;
16310;SDS011;8264;48.510;8.872;2022-10-03T14:57:39;9.20;;;3.00;;
16310;SDS011;8264;48.510;8.872;2022-10-03T15:00:11;4.57;;;3.23;;
16310;SDS011;8264;48.510;8.872;2022-10-03T15:02:49;3.57;;;2.40;;
16310;SDS011;8264;48.510;8.872;2022-10-03T15:05:16;14.93;;;3.23;;
16310;SDS011;8264;48.510;8.872;2022-10-03T15:07:49;4.80;;;2.83;;
16310;SDS011;8264;48.510;8.872;2022-10-03T15:10:17;7.30;;;2.83;;
16310;SDS011;8264;48.510;8.872;2022-10-03T15:12:45;5.77;;;2.63;;
16310;SDS011;8264;48.510;8.872;2022-10-03T15:15:14;3.30;;;2.03;;
16310;SDS011;8264;48.510;8.872;2022-10-03T15:17:45;3.73;;;2.57;;
16310;SDS011;8264;48.510;8.872;2022-10-03T15:20:12;4.63;;;2.67;;
16310;SDS011;8264;48.510;8.872;2022-10-03T15:22:45;5.23;;;2.40;;
16310;SDS011;8264;48.510;8.872;2022-10-03T15:25:15;4.10;;;2.57;;
16310;SDS011;8264;48.510;8.872;2022-10-03T15:27:44;6.13;;;2.60;;
16310;SDS011;8264;48.510;8.872;2022-10-03T15:30:18;4.37;;;2.40;;
16310;SDS011;8264;48.510;8.872;2022-10-03T15:32:45;3.30;;;2.53;;
16310;SDS011;8264;48.510;8.872;2022-10-03T15:35:15;6.43;;;3.03;;
16310;SDS011;8264;48.510;8.872;2022-10-03T15:37:44;4.87;;;3.10;;
16310;SDS011;8264;48.510;8.872;2022-10-03T15:40:19;8.33;;;5.10;;
16310;SDS011;8264;48.510;8.872;2022-10-03T15:42:48;7.87;;;3.93;;
16310;SDS011;8264;48.510;8.872;2022-10-03T15:45:17;7.80;;;4.63;;
16310;SDS011;8264;48.510;8.872;2022-10-03T15:47:47;5.40;;;4.13;;
16310;SDS011;8264;48.510;8.872;2022-10-03T15:50:16;7.50;;;3.83;;
16310;SDS011;8264;48.510;8.872;2022-10-03T15:52:45;5.53;;;3.90;;
16310;SDS011;8264;48.510;8.872;2022-10-03T15:55:17;5.60;;;3.60;;
16310;SDS011;8264;48.510;8.872;2022-10-03T15:57:48;6.43;;;3.93;;
16310;SDS011;8264;48.510;8.872;2022-10-03T16:00:20;6.37;;;3.40;;
16310;SDS011;8264;48.510;8.872;2022-10-03T16:02:49;7.00;;;3.40;;
16310;SDS011;8264;48.510;8.872;2022-10-03T16:05:21;7.10;;;4.07;;
16310;SDS011;8264;48.510;8.872;2022-10-03T16:07:50;4.90;;;3.77;;
16310;SDS011;8264;48.510;8.872;2022-10-03T16:10:23;5.93;;;4.13;;
16310;SDS011;8264;48.510;8.872;2022-10-03T16:12:54;6.60;;;4.10;;
16310;SDS011;8264;48.510;8.872;2022-10-03T16:15:24;11.23;;;4.07;;
16310;SDS011;8264;48.510;8.872;2022-10-03T16:17:54;8.47;;;3.90;;
16310;SDS011;8264;48.510;8.872;2022-10-03T16:20:22;6.50;;;4.40;;
16310;SDS011;8264;48.510;8.872;2022-10-03T16:22:51;7.90;;;4.50;;
16310;SDS011;8264;48.510;8.872;2022-10-03T16:25:20;4.97;;;3.57;;
16310;SDS011;8264;48.510;8.872;2022-10-03T16:27:51;8.10;;;4.47;;
16310;SDS011;8264;48.510;8.872;2022-10-03T16:30:20;5.77;;;4.10;;
16310;SDS011;8264;48.510;8.872;2022-10-03T16:32:48;5.93;;;3.83;;
16310;SDS011;8264;48.510;8.872;2022-10-03T16:35:27;8.83;;;4.40;;
16310;SDS011;8264;48.510;8.872;2022-10-03T16:37:57;7.03;;;4.47;;
16310;SDS011;8264;48.510;8.872;2022-10-03T16:40:26;5.87;;;4.30;;
16310;SDS011;8264;48.510;8.872;2022-10-03T16:42:54;5.67;;;4.20;;
16310;SDS011;8264;48.510;8.872;2022-10-03T16:45:24;7.13;;;4.17;;
16310;SDS011;8264;48.510;8.872;2022-10-03T16:47:52;6.07;;;4.30;;
16310;SDS011;8264;48.510;8.872;2022-10-03T16:50:36;7.07;;;4.03;;
16310;SDS011;8264;48.510;8.872;2022-10-03T16:53:09;6.57;;;4.17;;
16310;SDS011;8264;48.510;8.872;2022-10-03T16:55:41;9.53;;;4.20;;
16310;SDS011;8264;48.510;8.872;2022-10-03T16:58:14;5.97;;;3.30;;
16310;SDS011;8264;48.510;8.872;2022-10-03T17:00:48;7.43;;;4.30;;
16310;SDS011;8264;48.510;8.872;2022-10-03T17:03:18;5.50;;;3.20;;
16310;SDS011;8264;48.510;8.872;2022-10-03T17:05:47;6.57;;;3.40;;
16310;SDS011;8264;48.510;8.872;2022-10-03T17:08:14;5.83;;;3.40;;
16310;SDS011;8264;48.510;8.872;2022-10-03T17:10:44;7.57;;;3.33;;
16310;SDS011;8264;48.510;8.872;2022-10-03T17:13:17;6.83;;;3.70;;
16310;SDS011;8264;48.510;8.872;2022-10-03T17:15:49;7.80;;;3.90;;
16310;SDS011;8264;48.510;8.872;2022-10-03T17:18:19;5.37;;;3.57;;
16310;SDS011;8264;48.510;8.872;2022-10-03T17:20:51;7.80;;;3.77;;
16310;SDS011;8264;48.510;8.872;2022-10-03T17:23:32;6.43;;;4.00;;
16310;SDS011;8264;48.510;8.872;2022-10-03T17:26:08;8.10;;;3.60;;
16310;SDS011;8264;48.510;8.872;2022-10-03T17:28:40;7.40;;;3.70;;
16310;SDS011;8264;48.510;8.872;2022-10-03T17:33:56;7.63;;;3.70;;
16310;SDS011;8264;48.510;8.872;2022-10-03T17:36:36;7.37;;;3.60;;
16310;SDS011;8264;48.510;8.872;2022-10-03T17:39:09;10.37;;;3.97;;
16310;SDS011;8264;48.510;8.872;2022-10-03T17:41:46;8.07;;;4.10;;
16310;SDS011;8264;48.510;8.872;2022-10-03T17:44:18;7.60;;;3.60;;
16310;SDS011;8264;48.510;8.872;2022-10-03T17:46:53;6.70;;;3.90;;
16310;SDS011;8264;48.510;8.872;2022-10-03T17:49:26;5.83;;;3.67;;
16310;SDS011;8264;48.510;8.872;2022-10-03T17:52:01;10.43;;;3.83;;
16310;SDS011;8264;48.510;8.872;2022-10-03T17:54:29;9.23;;;3.93;;
16310;SDS011;8264;48.510;8.872;2022-10-03T17:57:00;11.97;;;4.33;;
16310;SDS011;8264;48.510;8.872;2022-10-03T17:59:31;7.30;;;4.40;;
16310;SDS011;8264;48.510;8.872;2022-10-03T18:02:00;9.77;;;4.37;;
16310;SDS011;8264;48.510;8.872;2022-10-03T18:04:34;8.33;;;3.80;;
16310;SDS011;8264;48.510;8.872;2022-10-03T18:07:03;8.37;;;4.20;;
16310;SDS011;8264;48.510;8.872;2022-10-03T18:09:33;7.30;;;4.27;;
16310;SDS011;8264;48.510;8.872;2022-10-03T18:12:11;11.23;;;4.00;;
16310;SDS011;8264;48.510;8.872;2022-10-03T18:17:58;6.10;;;4.83;;
16310;SDS011;8264;48.510;8.872;2022-10-03T18:20:39;12.60;;;6.00;;
16310;SDS011;8264;48.510;8.872;2022-10-03T18:23:10;8.10;;;5.67;;
16310;SDS011;8264;48.510;8.872;2022-10-03T18:25:45;11.80;;;6.80;;
16310;SDS011;8264;48.510;8.872;2022-10-03T18:28:24;9.10;;;5.73;;
16310;SDS011;8264;48.510;8.872;2022-10-03T18:30:53;10.97;;;6.37;;
16310;SDS011;8264;48.510;8.872;2022-10-03T18:33:23;9.10;;;5.37;;
16310;SDS011;8264;48.510;8.872;2022-10-03T18:35:51;5.57;;;4.70;;
16310;SDS011;8264;48.510;8.872;2022-10-03T18:38:19;6.10;;;4.43;;
16310;SDS011;8264;48.510;8.872;2022-10-03T18:40:48;8.93;;;5.43;;
16310;SDS011;8264;48.510;8.872;2022-10-03T18:43:30;8.63;;;4.57;;
16310;SDS011;8264;48.510;8.872;2022-10-03T18:46:01;8.40;;;4.97;;
16310;SDS011;8264;48.510;8.872;2022-10-03T18:48:33;11.00;;;6.27;;
16310;SDS011;8264;48.510;8.872;2022-10-03T18:51:07;12.17;;;6.60;;
16310;SDS011;8264;48.510;8.872;2022-10-03T18:53:38;12.30;;;6.47;;
16310;SDS011;8264;48.510;8.872;2022-10-03T18:56:10;10.97;;;7.07;;
16310;SDS011;8264;48.510;8.872;2022-10-03T19:01:28;10.00;;;5.87;;
16310;SDS011;8264;48.510;8.872;2022-10-03T19:03:56;9.63;;;6.60;;
16310;SDS011;8264;48.510;8.872;2022-10-03T19:06:24;10.73;;;6.57;;
16310;SDS011;8264;48.510;8.872;2022-10-03T19:08:52;14.23;;;7.27;;
16310;SDS011;8264;48.510;8.872;2022-10-03T19:11:22;11.60;;;7.17;;